sensor_id;sensor_type;location;lat;lon;timestamp;pressure;altitude;pressure_sealevel;temperature;humidity
79703;BME280;69172;52.352;5.006;2023-08-30T00:00:04;100856.25;;;14.44;84.71
79703;BME280;69172;52.352;5.006;2023-08-30T00:02:29;100855.69;;;14.51;84.94
79703;BME280;69172;52.352;5.006;2023-08-30T00:04:59;100862.22;;;14.63;84.69
79703;BME280;69172;52.352;5.006;2023-08-30T00:07:24;100852.88;;;14.67;85.34
79703;BME280;69172;52.352;5.006;2023-08-30T00:09:50;100858.31;;;14.73;85.81
79703;BME280;69172;52.352;5.006;2023-08-30T00:12:15;100845.38;;;14.73;85.77
79703;BME280;69172;52.352;5.006;2023-08-30T00:14:41;100844.75;;;14.80;85.49
79703;BME280;69172;52.352;5.006;2023-08-30T00:17:06;100837.75;;;14.77;84.30
79703;BME280;69172;52.352;5.006;2023-08-30T00:19:32;100838.81;;;14.82;84.32
79703;BME280;69172;52.352;5.006;2023-08-30T00:21:57;100833.69;;;14.84;83.82
79703;BME280;69172;52.352;5.006;2023-08-30T00:24:22;100835.53;;;14.86;83.35
79703;BME280;69172;52.352;5.006;2023-08-30T00:26:48;100830.41;;;14.88;83.46
79703;BME280;69172;52.352;5.006;2023-08-30T00:29:13;100828.81;;;14.92;82.73
79703;BME280;69172;52.352;5.006;2023-08-30T00:31:39;100826.22;;;14.92;82.68
79703;BME280;69172;52.352;5.006;2023-08-30T00:34:04;100821.91;;;14.92;82.81
79703;BME280;69172;52.352;5.006;2023-08-30T00:36:29;100820.16;;;14.91;82.74
79703;BME280;69172;52.352;5.006;2023-08-30T00:38:55;100823.00;;;14.97;82.83
79703;BME280;69172;52.352;5.006;2023-08-30T00:41:21;100814.34;;;14.97;83.19
79703;BME280;69172;52.352;5.006;2023-08-30T00:43:46;100818.63;;;14.96;83.74
79703;BME280;69172;52.352;5.006;2023-08-30T00:46:12;100815.25;;;14.99;83.12
79703;BME280;69172;52.352;5.006;2023-08-30T00:48:38;100814.34;;;14.97;82.90
79703;BME280;69172;52.352;5.006;2023-08-30T00:51:04;100815.31;;;15.00;83.32
79703;BME280;69172;52.352;5.006;2023-08-30T00:53:30;100804.22;;;15.03;82.92
79703;BME280;69172;52.352;5.006;2023-08-30T00:55:55;100803.22;;;14.99;82.43
79703;BME280;69172;52.352;5.006;2023-08-30T00:58:21;100804.91;;;14.99;81.83
79703;BME280;69172;52.352;5.006;2023-08-30T01:00:46;100799.97;;;15.05;81.67
79703;BME280;69172;52.352;5.006;2023-08-30T01:03:12;100794.44;;;14.96;82.69
79703;BME280;69172;52.352;5.006;2023-08-30T01:05:38;100797.19;;;15.00;83.19
79703;BME280;69172;52.352;5.006;2023-08-30T01:08:04;100791.84;;;14.96;82.45
79703;BME280;69172;52.352;5.006;2023-08-30T01:10:54;100789.31;;;14.97;82.02
79703;BME280;69172;52.352;5.006;2023-08-30T01:13:23;100789.38;;;14.99;82.37
79703;BME280;69172;52.352;5.006;2023-08-30T01:15:51;100788.00;;;15.08;82.62
79703;BME280;69172;52.352;5.006;2023-08-30T01:18:18;100787.00;;;15.05;81.78
79703;BME280;69172;52.352;5.006;2023-08-30T01:20:46;100784.81;;;15.15;81.95
79703;BME280;69172;52.352;5.006;2023-08-30T01:23:27;100773.56;;;15.15;82.00
79703;BME280;69172;52.352;5.006;2023-08-30T01:28:31;100779.47;;;15.11;82.42
79703;BME280;69172;52.352;5.006;2023-08-30T01:30:59;100778.69;;;15.13;82.55
79703;BME280;69172;52.352;5.006;2023-08-30T01:33:25;100781.97;;;15.09;82.93
79703;BME280;69172;52.352;5.006;2023-08-30T01:35:55;100769.91;;;15.10;82.84
79703;BME280;69172;52.352;5.006;2023-08-30T01:38:35;100781.22;;;15.12;82.68
79703;BME280;69172;52.352;5.006;2023-08-30T01:41:04;100777.06;;;15.17;81.98
79703;BME280;69172;52.352;5.006;2023-08-30T01:43:30;100778.03;;;15.19;82.34
79703;BME280;69172;52.352;5.006;2023-08-30T01:45:58;100773.81;;;15.22;81.85
79703;BME280;69172;52.352;5.006;2023-08-30T01:48:26;100772.91;;;15.20;82.69
79703;BME280;69172;52.352;5.006;2023-08-30T01:50:53;100767.94;;;15.26;82.22
79703;BME280;69172;52.352;5.006;2023-08-30T01:53:24;100759.81;;;15.17;82.37
79703;BME280;69172;52.352;5.006;2023-08-30T01:55:50;100761.50;;;15.15;81.96
79703;BME280;69172;52.352;5.006;2023-08-30T01:58:15;100764.75;;;15.10;82.76
79703;BME280;69172;52.352;5.006;2023-08-30T02:00:41;100752.09;;;14.95;82.87
79703;BME280;69172;52.352;5.006;2023-08-30T02:03:10;100760.38;;;14.85;84.05
79703;BME280;69172;52.352;5.006;2023-08-30T02:06:00;100750.81;;;14.84;83.85
79703;BME280;69172;52.352;5.006;2023-08-30T02:08:26;100756.25;;;14.90;84.10
79703;BME280;69172;52.352;5.006;2023-08-30T02:11:01;100754.56;;;14.92;84.01
79703;BME280;69172;52.352;5.006;2023-08-30T02:13:35;100753.00;;;14.96;83.24
79703;BME280;69172;52.352;5.006;2023-08-30T02:16:14;100751.25;;;14.95;83.42
79703;BME280;69172;52.352;5.006;2023-08-30T02:18:42;100743.63;;;14.99;82.41
79703;BME280;69172;52.352;5.006;2023-08-30T02:21:08;100741.63;;;14.92;82.35
79703;BME280;69172;52.352;5.006;2023-08-30T02:23:33;100739.03;;;14.92;82.39
79703;BME280;69172;52.352;5.006;2023-08-30T02:25:59;100738.34;;;14.96;81.99
79703;BME280;69172;52.352;5.006;2023-08-30T02:28:24;100737.56;;;14.99;82.26
79703;BME280;69172;52.352;5.006;2023-08-30T02:30:52;100736.69;;;14.98;82.33
79703;BME280;69172;52.352;5.006;2023-08-30T02:33:18;100738.31;;;14.95;82.09
79703;BME280;69172;52.352;5.006;2023-08-30T02:35:43;100731.50;;;14.98;82.45
79703;BME280;69172;52.352;5.006;2023-08-30T02:38:09;100736.78;;;15.01;81.87
79703;BME280;69172;52.352;5.006;2023-08-30T02:40:34;100728.22;;;15.02;82.34
79703;BME280;69172;52.352;5.006;2023-08-30T02:42:59;100720.38;;;15.01;82.50
79703;BME280;69172;52.352;5.006;2023-08-30T02:45:25;100721.25;;;15.01;82.05
79703;BME280;69172;52.352;5.006;2023-08-30T02:47:50;100729.84;;;15.00;82.65
79703;BME280;69172;52.352;5.006;2023-08-30T02:50:16;100718.63;;;15.00;82.82
79703;BME280;69172;52.352;5.006;2023-08-30T02:52:41;100712.47;;;14.98;83.17
79703;BME280;69172;52.352;5.006;2023-08-30T02:55:06;100707.28;;;14.96;83.23
79703;BME280;69172;52.352;5.006;2023-08-30T02:57:32;100703.78;;;14.96;83.67
79703;BME280;69172;52.352;5.006;2023-08-30T02:59:57;100697.06;;;15.01;83.74
79703;BME280;69172;52.352;5.006;2023-08-30T03:02:23;100695.34;;;15.01;83.84
79703;BME280;69172;52.352;5.006;2023-08-30T03:04:48;100693.69;;;15.03;84.46
79703;BME280;69172;52.352;5.006;2023-08-30T03:07:13;100694.34;;;14.98;84.19
79703;BME280;69172;52.352;5.006;2023-08-30T03:09:39;100695.13;;;14.95;84.99
79703;BME280;69172;52.352;5.006;2023-08-30T03:12:06;100689.81;;;14.90;85.91
79703;BME280;69172;52.352;5.006;2023-08-30T03:14:31;100688.81;;;14.87;85.94
79703;BME280;69172;52.352;5.006;2023-08-30T03:16:57;100690.31;;;14.80;86.75
79703;BME280;69172;52.352;5.006;2023-08-30T03:19:22;100688.38;;;14.75;87.67
79703;BME280;69172;52.352;5.006;2023-08-30T03:21:47;100683.78;;;14.68;87.62
79703;BME280;69172;52.352;5.006;2023-08-30T03:24:13;100676.63;;;14.61;88.12
79703;BME280;69172;52.352;5.006;2023-08-30T03:26:42;100670.44;;;14.57;88.77
79703;BME280;69172;52.352;5.006;2023-08-30T03:29:08;100678.19;;;14.56;88.46
79703;BME280;69172;52.352;5.006;2023-08-30T03:31:34;100672.06;;;14.54;88.03
79703;BME280;69172;52.352;5.006;2023-08-30T03:33:59;100660.75;;;14.52;86.83
79703;BME280;69172;52.352;5.006;2023-08-30T03:36:24;100669.25;;;14.48;87.69
79703;BME280;69172;52.352;5.006;2023-08-30T03:38:50;100668.97;;;14.40;88.16
79703;BME280;69172;52.352;5.006;2023-08-30T03:41:15;100666.16;;;14.34;88.72
79703;BME280;69172;52.352;5.006;2023-08-30T03:43:40;100661.59;;;14.28;88.12
79703;BME280;69172;52.352;5.006;2023-08-30T03:46:06;100651.81;;;14.21;87.05
79703;BME280;69172;52.352;5.006;2023-08-30T03:48:31;100647.28;;;14.16;86.00
79703;BME280;69172;52.352;5.006;2023-08-30T03:50:58;100641.06;;;14.11;85.37
79703;BME280;69172;52.352;5.006;2023-08-30T03:53:24;100637.50;;;14.07;86.46
79703;BME280;69172;52.352;5.006;2023-08-30T03:55:49;100648.13;;;14.15;86.25
79703;BME280;69172;52.352;5.006;2023-08-30T03:58:15;100645.31;;;14.09;86.66
79703;BME280;69172;52.352;5.006;2023-08-30T04:00:41;100644.38;;;14.07;86.69
79703;BME280;69172;52.352;5.006;2023-08-30T04:03:08;100640.09;;;14.07;86.30
79703;BME280;69172;52.352;5.006;2023-08-30T04:05:37;100642.84;;;14.12;85.29
79703;BME280;69172;52.352;5.006;2023-08-30T04:08:06;100645.53;;;14.15;84.66
79703;BME280;69172;52.352;5.006;2023-08-30T04:10:36;100655.88;;;14.15;85.03
79703;BME280;69172;52.352;5.006;2023-08-30T04:13:08;100650.88;;;14.19;85.63
79703;BME280;69172;52.352;5.006;2023-08-30T04:15:37;100650.63;;;14.13;85.41
79703;BME280;69172;52.352;5.006;2023-08-30T04:18:04;100649.19;;;14.20;85.18
79703;BME280;69172;52.352;5.006;2023-08-30T04:20:30;100641.59;;;14.24;84.91
79703;BME280;69172;52.352;5.006;2023-08-30T04:22:56;100644.81;;;14.19;84.08
79703;BME280;69172;52.352;5.006;2023-08-30T04:25:22;100641.47;;;14.21;85.26
79703;BME280;69172;52.352;5.006;2023-08-30T04:27:48;100639.97;;;14.26;84.43
79703;BME280;69172;52.352;5.006;2023-08-30T04:30:15;100641.81;;;14.30;84.98
79703;BME280;69172;52.352;5.006;2023-08-30T04:32:41;100638.56;;;14.35;85.02
79703;BME280;69172;52.352;5.006;2023-08-30T04:35:06;100628.50;;;14.42;83.44
79703;BME280;69172;52.352;5.006;2023-08-30T04:37:32;100624.09;;;14.40;83.16
79703;BME280;69172;52.352;5.006;2023-08-30T04:39:57;100616.06;;;14.32;84.24
79703;BME280;69172;52.352;5.006;2023-08-30T04:42:23;100610.13;;;14.35;84.43
79703;BME280;69172;52.352;5.006;2023-08-30T04:44:48;100623.16;;;14.38;84.99
79703;BME280;69172;52.352;5.006;2023-08-30T04:47:14;100610.44;;;14.44;84.64
79703;BME280;69172;52.352;5.006;2023-08-30T04:49:39;100606.88;;;14.40;84.43
79703;BME280;69172;52.352;5.006;2023-08-30T04:52:05;100608.69;;;14.43;84.21
79703;BME280;69172;52.352;5.006;2023-08-30T04:54:31;100599.97;;;14.41;83.25
79703;BME280;69172;52.352;5.006;2023-08-30T04:56:56;100593.97;;;14.42;82.75
79703;BME280;69172;52.352;5.006;2023-08-30T04:59:21;100597.44;;;14.42;81.13
79703;BME280;69172;52.352;5.006;2023-08-30T05:01:47;100594.78;;;14.41;82.45
79703;BME280;69172;52.352;5.006;2023-08-30T05:04:12;100590.28;;;14.35;80.25
79703;BME280;69172;52.352;5.006;2023-08-30T05:06:38;100590.09;;;14.30;79.67
79703;BME280;69172;52.352;5.006;2023-08-30T05:09:03;100593.63;;;14.32;78.88
79703;BME280;69172;52.352;5.006;2023-08-30T05:11:28;100592.56;;;14.27;79.51
79703;BME280;69172;52.352;5.006;2023-08-30T05:13:55;100591.94;;;14.33;79.24
79703;BME280;69172;52.352;5.006;2023-08-30T05:16:20;100594.31;;;14.28;78.83
79703;BME280;69172;52.352;5.006;2023-08-30T05:18:46;100600.44;;;14.30;80.00
79703;BME280;69172;52.352;5.006;2023-08-30T05:21:13;100602.25;;;14.32;80.44
79703;BME280;69172;52.352;5.006;2023-08-30T05:23:39;100606.75;;;14.37;80.52
79703;BME280;69172;52.352;5.006;2023-08-30T05:26:08;100599.94;;;14.39;79.61
79703;BME280;69172;52.352;5.006;2023-08-30T05:28:33;100607.03;;;14.45;79.47
79703;BME280;69172;52.352;5.006;2023-08-30T05:30:59;100607.56;;;14.36;78.89
79703;BME280;69172;52.352;5.006;2023-08-30T05:33:24;100615.50;;;14.41;79.27
79703;BME280;69172;52.352;5.006;2023-08-30T05:35:50;100611.81;;;14.58;77.37
79703;BME280;69172;52.352;5.006;2023-08-30T05:38:15;100605.44;;;14.48;76.85
79703;BME280;69172;52.352;5.006;2023-08-30T05:40:40;100606.53;;;14.55;77.46
79703;BME280;69172;52.352;5.006;2023-08-30T05:43:10;100596.00;;;14.74;75.73
79703;BME280;69172;52.352;5.006;2023-08-30T05:45:36;100588.00;;;14.68;76.18
79703;BME280;69172;52.352;5.006;2023-08-30T05:48:03;100585.53;;;14.71;77.26
79703;BME280;69172;52.352;5.006;2023-08-30T05:50:28;100583.00;;;14.72;77.44
79703;BME280;69172;52.352;5.006;2023-08-30T05:52:54;100588.84;;;14.67;78.38
79703;BME280;69172;52.352;5.006;2023-08-30T05:55:19;100585.31;;;14.65;79.22
79703;BME280;69172;52.352;5.006;2023-08-30T05:57:45;100582.00;;;14.69;77.66
79703;BME280;69172;52.352;5.006;2023-08-30T06:00:11;100582.63;;;14.62;79.21
79703;BME280;69172;52.352;5.006;2023-08-30T06:02:38;100584.00;;;14.52;79.76
79703;BME280;69172;52.352;5.006;2023-08-30T06:05:05;100590.88;;;14.52;81.15
79703;BME280;69172;52.352;5.006;2023-08-30T06:07:31;100585.22;;;14.38;80.45
79703;BME280;69172;52.352;5.006;2023-08-30T06:09:56;100580.94;;;14.39;81.92
79703;BME280;69172;52.352;5.006;2023-08-30T06:12:22;100585.81;;;14.31;82.14
79703;BME280;69172;52.352;5.006;2023-08-30T06:14:47;100572.88;;;14.31;84.14
79703;BME280;69172;52.352;5.006;2023-08-30T06:17:18;100574.28;;;14.23;84.85
79703;BME280;69172;52.352;5.006;2023-08-30T06:19:44;100574.81;;;14.14;86.23
79703;BME280;69172;52.352;5.006;2023-08-30T06:22:10;100580.66;;;14.09;87.38
79703;BME280;69172;52.352;5.006;2023-08-30T06:24:35;100572.97;;;14.10;87.91
79703;BME280;69172;52.352;5.006;2023-08-30T06:27:00;100573.63;;;14.05;90.81
79703;BME280;69172;52.352;5.006;2023-08-30T06:29:26;100564.97;;;14.04;92.22
79703;BME280;69172;52.352;5.006;2023-08-30T06:31:51;100559.56;;;13.98;91.11
79703;BME280;69172;52.352;5.006;2023-08-30T06:34:16;100568.25;;;14.00;92.50
79703;BME280;69172;52.352;5.006;2023-08-30T06:36:42;100561.81;;;13.67;94.61
79703;BME280;69172;52.352;5.006;2023-08-30T06:39:07;100565.22;;;13.66;95.79
79703;BME280;69172;52.352;5.006;2023-08-30T06:41:33;100559.56;;;13.54;97.29
79703;BME280;69172;52.352;5.006;2023-08-30T06:43:58;100559.91;;;13.41;98.40
79703;BME280;69172;52.352;5.006;2023-08-30T06:46:24;100556.69;;;13.46;100.00
79703;BME280;69172;52.352;5.006;2023-08-30T06:48:49;100554.34;;;13.52;100.00
79703;BME280;69172;52.352;5.006;2023-08-30T06:51:14;100547.94;;;13.65;100.00
79703;BME280;69172;52.352;5.006;2023-08-30T06:53:40;100537.72;;;13.68;100.00
79703;BME280;69172;52.352;5.006;2023-08-30T06:56:05;100535.38;;;13.74;100.00
79703;BME280;69172;52.352;5.006;2023-08-30T06:58:31;100526.81;;;13.75;100.00
79703;BME280;69172;52.352;5.006;2023-08-30T07:00:59;100519.00;;;13.73;100.00
79703;BME280;69172;52.352;5.006;2023-08-30T07:03:25;100525.75;;;13.70;100.00
79703;BME280;69172;52.352;5.006;2023-08-30T07:05:51;100521.53;;;13.72;100.00
79703;BME280;69172;52.352;5.006;2023-08-30T07:08:17;100529.44;;;13.77;100.00
79703;BME280;69172;52.352;5.006;2023-08-30T07:10:42;100535.69;;;13.59;100.00
79703;BME280;69172;52.352;5.006;2023-08-30T07:13:08;100531.03;;;13.51;100.00
79703;BME280;69172;52.352;5.006;2023-08-30T07:15:38;100528.22;;;13.45;100.00
79703;BME280;69172;52.352;5.006;2023-08-30T07:18:05;100524.56;;;13.62;100.00
79703;BME280;69172;52.352;5.006;2023-08-30T07:20:31;100519.00;;;13.73;100.00
79703;BME280;69172;52.352;5.006;2023-08-30T07:22:56;100520.44;;;13.89;100.00
79703;BME280;69172;52.352;5.006;2023-08-30T07:25:22;100517.28;;;13.96;100.00
79703;BME280;69172;52.352;5.006;2023-08-30T07:27:47;100511.72;;;14.09;100.00
79703;BME280;69172;52.352;5.006;2023-08-30T07:30:13;100505.44;;;14.26;100.00
79703;BME280;69172;52.352;5.006;2023-08-30T07:32:38;100505.75;;;14.34;100.00
79703;BME280;69172;52.352;5.006;2023-08-30T07:35:04;100497.78;;;14.53;100.00
79703;BME280;69172;52.352;5.006;2023-08-30T07:37:30;100497.69;;;14.75;100.00
79703;BME280;69172;52.352;5.006;2023-08-30T07:39:56;100496.03;;;14.77;99.33
79703;BME280;69172;52.352;5.006;2023-08-30T07:42:21;100484.56;;;14.96;97.10
79703;BME280;69172;52.352;5.006;2023-08-30T07:44:46;100482.00;;;14.98;98.93
79703;BME280;69172;52.352;5.006;2023-08-30T07:47:12;100480.28;;;14.98;99.71
79703;BME280;69172;52.352;5.006;2023-08-30T07:49:38;100481.22;;;15.00;98.21
79703;BME280;69172;52.352;5.006;2023-08-30T07:52:04;100485.13;;;15.14;97.68
79703;BME280;69172;52.352;5.006;2023-08-30T07:54:30;100477.63;;;15.22;97.13
79703;BME280;69172;52.352;5.006;2023-08-30T07:56:56;100471.59;;;15.23;95.69
79703;BME280;69172;52.352;5.006;2023-08-30T07:59:21;100480.38;;;15.28;96.68
79703;BME280;69172;52.352;5.006;2023-08-30T08:01:46;100472.72;;;15.31;96.27
79703;BME280;69172;52.352;5.006;2023-08-30T08:04:13;100484.84;;;15.32;95.44
79703;BME280;69172;52.352;5.006;2023-08-30T08:06:38;100482.84;;;15.23;97.45
79703;BME280;69172;52.352;5.006;2023-08-30T08:09:05;100479.00;;;15.39;97.07
79703;BME280;69172;52.352;5.006;2023-08-30T08:11:31;100476.81;;;15.51;97.68
79703;BME280;69172;52.352;5.006;2023-08-30T08:13:57;100473.84;;;15.67;95.15
79703;BME280;69172;52.352;5.006;2023-08-30T08:16:22;100468.47;;;15.91;92.89
79703;BME280;69172;52.352;5.006;2023-08-30T08:18:48;100479.50;;;16.14;92.46
79703;BME280;69172;52.352;5.006;2023-08-30T08:21:13;100475.59;;;16.29;92.85
79703;BME280;69172;52.352;5.006;2023-08-30T08:23:38;100472.19;;;16.30;89.92
79703;BME280;69172;52.352;5.006;2023-08-30T08:26:04;100469.41;;;16.24;90.80
79703;BME280;69172;52.352;5.006;2023-08-30T08:28:29;100473.75;;;16.25;91.48
79703;BME280;69172;52.352;5.006;2023-08-30T08:30:55;100471.16;;;16.25;91.13
79703;BME280;69172;52.352;5.006;2023-08-30T08:33:21;100463.72;;;16.39;91.23
79703;BME280;69172;52.352;5.006;2023-08-30T08:35:48;100460.28;;;16.38;88.78
79703;BME280;69172;52.352;5.006;2023-08-30T08:38:14;100465.78;;;16.50;88.15
79703;BME280;69172;52.352;5.006;2023-08-30T08:40:40;100463.06;;;16.46;88.17
79703;BME280;69172;52.352;5.006;2023-08-30T08:43:06;100457.69;;;16.38;88.03
79703;BME280;69172;52.352;5.006;2023-08-30T08:45:35;100465.66;;;16.46;89.40
79703;BME280;69172;52.352;5.006;2023-08-30T08:48:04;100458.63;;;16.42;88.75
79703;BME280;69172;52.352;5.006;2023-08-30T08:50:30;100452.91;;;16.53;88.56
79703;BME280;69172;52.352;5.006;2023-08-30T08:52:57;100457.56;;;16.02;88.86
79703;BME280;69172;52.352;5.006;2023-08-30T08:55:22;100452.50;;;16.07;89.96
79703;BME280;69172;52.352;5.006;2023-08-30T08:57:48;100453.28;;;16.04;87.90
79703;BME280;69172;52.352;5.006;2023-08-30T09:00:14;100456.97;;;15.52;91.40
79703;BME280;69172;52.352;5.006;2023-08-30T09:02:42;100455.78;;;15.42;93.28
79703;BME280;69172;52.352;5.006;2023-08-30T09:05:08;100462.66;;;15.41;92.86
79703;BME280;69172;52.352;5.006;2023-08-30T09:07:35;100459.81;;;15.32;93.89
79703;BME280;69172;52.352;5.006;2023-08-30T09:10:02;100461.19;;;15.21;95.86
79703;BME280;69172;52.352;5.006;2023-08-30T09:12:32;100465.13;;;15.37;98.33
79703;BME280;69172;52.352;5.006;2023-08-30T09:14:57;100458.69;;;15.51;96.96
79703;BME280;69172;52.352;5.006;2023-08-30T09:17:23;100468.81;;;15.45;96.84
79703;BME280;69172;52.352;5.006;2023-08-30T09:19:48;100463.81;;;15.49;100.00
79703;BME280;69172;52.352;5.006;2023-08-30T09:22:14;100466.56;;;15.54;99.47
79703;BME280;69172;52.352;5.006;2023-08-30T09:24:41;100462.94;;;15.49;97.70
79703;BME280;69172;52.352;5.006;2023-08-30T09:27:07;100465.47;;;15.47;100.00
79703;BME280;69172;52.352;5.006;2023-08-30T09:29:33;100467.06;;;15.44;100.00
79703;BME280;69172;52.352;5.006;2023-08-30T09:32:00;100466.69;;;15.32;100.00
79703;BME280;69172;52.352;5.006;2023-08-30T09:34:26;100476.00;;;15.25;100.00
79703;BME280;69172;52.352;5.006;2023-08-30T09:36:52;100473.88;;;15.14;100.00
79703;BME280;69172;52.352;5.006;2023-08-30T09:39:19;100498.53;;;15.01;100.00
79703;BME280;69172;52.352;5.006;2023-08-30T09:41:46;100483.66;;;14.96;100.00
79703;BME280;69172;52.352;5.006;2023-08-30T09:44:13;100484.97;;;15.08;100.00
79703;BME280;69172;52.352;5.006;2023-08-30T09:46:49;100469.28;;;15.32;99.91
79703;BME280;69172;52.352;5.006;2023-08-30T09:49:14;100466.81;;;15.63;100.00
79703;BME280;69172;52.352;5.006;2023-08-30T09:51:41;100465.69;;;15.55;93.09
79703;BME280;69172;52.352;5.006;2023-08-30T09:54:14;100461.53;;;15.60;94.05
79703;BME280;69172;52.352;5.006;2023-08-30T09:56:41;100462.81;;;15.74;90.96
79703;BME280;69172;52.352;5.006;2023-08-30T09:59:07;100461.72;;;15.66;89.70
79703;BME280;69172;52.352;5.006;2023-08-30T10:01:36;100460.31;;;15.77;90.93
79703;BME280;69172;52.352;5.006;2023-08-30T10:04:02;100461.53;;;15.90;88.94
79703;BME280;69172;52.352;5.006;2023-08-30T10:06:29;100460.09;;;16.01;86.53
79703;BME280;69172;52.352;5.006;2023-08-30T10:08:56;100457.03;;;16.14;90.39
79703;BME280;69172;52.352;5.006;2023-08-30T10:11:23;100468.44;;;16.21;85.72
79703;BME280;69172;52.352;5.006;2023-08-30T10:13:51;100470.38;;;16.28;85.48
79703;BME280;69172;52.352;5.006;2023-08-30T10:16:19;100478.09;;;16.26;84.87
79703;BME280;69172;52.352;5.006;2023-08-30T10:18:59;100467.06;;;16.33;82.45
79703;BME280;69172;52.352;5.006;2023-08-30T10:21:27;100474.63;;;16.57;82.77
79703;BME280;69172;52.352;5.006;2023-08-30T10:23:55;100470.59;;;16.68;81.38
79703;BME280;69172;52.352;5.006;2023-08-30T10:26:24;100471.97;;;16.54;80.46
79703;BME280;69172;52.352;5.006;2023-08-30T10:28:55;100483.44;;;16.63;81.22
79703;BME280;69172;52.352;5.006;2023-08-30T10:31:22;100470.97;;;16.50;80.14
79703;BME280;69172;52.352;5.006;2023-08-30T10:33:57;100462.53;;;16.57;80.50
79703;BME280;69172;52.352;5.006;2023-08-30T10:36:25;100480.84;;;16.63;80.60
79703;BME280;69172;52.352;5.006;2023-08-30T10:38:52;100477.31;;;16.60;79.29
79703;BME280;69172;52.352;5.006;2023-08-30T10:41:23;100485.00;;;16.90;80.03
79703;BME280;69172;52.352;5.006;2023-08-30T10:43:54;100477.47;;;17.02;78.66
79703;BME280;69172;52.352;5.006;2023-08-30T10:46:31;100471.34;;;16.98;79.58
79703;BME280;69172;52.352;5.006;2023-08-30T10:49:18;100476.00;;;17.11;79.24
79703;BME280;69172;52.352;5.006;2023-08-30T10:51:43;100476.59;;;17.01;78.80
79703;BME280;69172;52.352;5.006;2023-08-30T10:54:16;100478.63;;;17.13;78.84
79703;BME280;69172;52.352;5.006;2023-08-30T10:56:58;100472.59;;;17.14;76.07
79703;BME280;69172;52.352;5.006;2023-08-30T10:59:26;100483.94;;;17.17;74.84
79703;BME280;69172;52.352;5.006;2023-08-30T11:01:52;100483.97;;;17.19;71.23
79703;BME280;69172;52.352;5.006;2023-08-30T11:04:19;100488.59;;;17.32;70.48
79703;BME280;69172;52.352;5.006;2023-08-30T11:06:46;100488.16;;;17.51;67.92
79703;BME280;69172;52.352;5.006;2023-08-30T11:09:16;100487.47;;;17.58;67.70
79703;BME280;69172;52.352;5.006;2023-08-30T11:11:45;100492.00;;;17.67;65.80
79703;BME280;69172;52.352;5.006;2023-08-30T11:14:12;100498.13;;;17.69;64.43
79703;BME280;69172;52.352;5.006;2023-08-30T11:16:39;100486.09;;;17.74;63.37
79703;BME280;69172;52.352;5.006;2023-08-30T11:19:06;100494.81;;;17.77;61.53
79703;BME280;69172;52.352;5.006;2023-08-30T11:21:39;100495.00;;;17.85;62.25
79703;BME280;69172;52.352;5.006;2023-08-30T11:24:06;100484.84;;;17.97;61.70
79703;BME280;69172;52.352;5.006;2023-08-30T11:26:32;100491.00;;;18.02;60.31
79703;BME280;69172;52.352;5.006;2023-08-30T11:28:57;100482.63;;;18.17;61.75
79703;BME280;69172;52.352;5.006;2023-08-30T11:31:24;100502.63;;;18.19;61.07
79703;BME280;69172;52.352;5.006;2023-08-30T11:33:57;100502.44;;;18.10;61.33
79703;BME280;69172;52.352;5.006;2023-08-30T11:36:26;100498.03;;;18.06;60.71
79703;BME280;69172;52.352;5.006;2023-08-30T11:38:54;100495.22;;;17.96;61.32
79703;BME280;69172;52.352;5.006;2023-08-30T11:41:20;100500.72;;;18.09;60.99
79703;BME280;69172;52.352;5.006;2023-08-30T11:43:50;100507.75;;;18.15;59.47
79703;BME280;69172;52.352;5.006;2023-08-30T11:46:16;100526.59;;;18.03;60.88
79703;BME280;69172;52.352;5.006;2023-08-30T11:48:42;100507.34;;;17.94;60.69
79703;BME280;69172;52.352;5.006;2023-08-30T11:51:08;100500.91;;;17.78;62.12
79703;BME280;69172;52.352;5.006;2023-08-30T11:53:34;100502.88;;;17.88;63.74
79703;BME280;69172;52.352;5.006;2023-08-30T11:56:01;100507.53;;;17.64;63.67
79703;BME280;69172;52.352;5.006;2023-08-30T11:58:26;100504.78;;;17.56;64.55
79703;BME280;69172;52.352;5.006;2023-08-30T12:00:53;100503.19;;;17.63;64.38
79703;BME280;69172;52.352;5.006;2023-08-30T12:03:22;100511.56;;;17.51;63.38
79703;BME280;69172;52.352;5.006;2023-08-30T12:05:48;100505.94;;;17.69;64.10
79703;BME280;69172;52.352;5.006;2023-08-30T12:08:28;100498.59;;;17.90;62.10
79703;BME280;69172;52.352;5.006;2023-08-30T12:10:56;100509.00;;;17.90;60.46
79703;BME280;69172;52.352;5.006;2023-08-30T12:15:54;100505.50;;;18.33;59.03
79703;BME280;69172;52.352;5.006;2023-08-30T12:18:23;100517.00;;;18.45;57.19
79703;BME280;69172;52.352;5.006;2023-08-30T12:20:58;100508.78;;;18.68;55.38
79703;BME280;69172;52.352;5.006;2023-08-30T12:23:25;100516.06;;;18.87;55.07
79703;BME280;69172;52.352;5.006;2023-08-30T12:28:37;100516.78;;;18.78;55.02
79703;BME280;69172;52.352;5.006;2023-08-30T12:31:03;100520.19;;;18.74;54.94
79703;BME280;69172;52.352;5.006;2023-08-30T12:33:29;100514.75;;;18.62;55.25
79703;BME280;69172;52.352;5.006;2023-08-30T12:35:55;100518.53;;;18.78;54.65
79703;BME280;69172;52.352;5.006;2023-08-30T12:38:21;100523.75;;;19.32;54.49
79703;BME280;69172;52.352;5.006;2023-08-30T12:40:48;100522.59;;;19.13;53.63
79703;BME280;69172;52.352;5.006;2023-08-30T12:43:15;100519.50;;;18.84;51.96
79703;BME280;69172;52.352;5.006;2023-08-30T12:45:40;100520.91;;;18.66;53.70
79703;BME280;69172;52.352;5.006;2023-08-30T12:48:07;100519.19;;;18.68;52.02
79703;BME280;69172;52.352;5.006;2023-08-30T12:50:33;100516.84;;;18.81;51.70
79703;BME280;69172;52.352;5.006;2023-08-30T12:53:01;100517.13;;;18.96;50.69